Time;durP1;ratioP1;P1;durP2;ratioP2;P2;SDS_P1;SDS_P2;PMS_P1;PMS_P2;Temp;Humidity;BMP_temperature;BMP_pressure;BME280_temperature;BME280_humidity;BME280_pressure;Samples;Min_cycle;Max_cycle;Signal;HPM_P1;HPM_P2
2022/07/08 00:00:18;;;;;;;;;2.00;0.67;;;;;16.68;56.82;103062.38;5004129;28;8960;-64
2022/07/08 00:02:44;;;;;;;;;0.00;0.00;;;;;16.67;56.75;103064.28;5010556;28;8923;-65
2022/07/08 00:05:11;;;;;;;;;2.00;0.00;;;;;16.67;57.18;103060.72;5010748;28;8862;-64
2022/07/08 00:07:38;;;;;;;;;0.00;0.00;;;;;16.66;57.08;103059.03;5010380;28;8873;-64
2022/07/08 00:10:06;;;;;;;;;0.50;0.00;;;;;16.65;56.90;103058.19;5003994;28;9558;-65
2022/07/08 00:12:33;;;;;;;;;2.00;0.00;;;;;16.64;56.93;103059.19;4994297;28;8814;-64
2022/07/08 00:14:59;;;;;;;;;0.25;0.25;;;;;16.65;56.84;103055.47;5009935;28;8846;-64
2022/07/08 00:17:27;;;;;;;;;2.00;0.00;;;;;16.66;56.83;103057.16;5010366;28;8920;-65
2022/07/08 00:19:53;;;;;;;;;0.33;0.33;;;;;16.63;56.83;103057.50;5009174;28;8970;-65
2022/07/08 00:22:20;;;;;;;;;0.00;0.00;;;;;16.61;56.93;103058.69;5003731;28;8986;-64
2022/07/08 00:24:46;;;;;;;;;1.00;1.00;;;;;16.58;56.97;103065.34;5007283;28;8999;-64
2022/07/08 00:27:13;;;;;;;;;2.00;1.00;;;;;16.55;57.34;103061.13;5010098;28;9007;-66
2022/07/08 00:29:39;;;;;;;;;0.00;0.00;;;;;16.53;57.34;103062.34;5010592;28;8928;-64
2022/07/08 00:32:06;;;;;;;;;0.67;0.67;;;;;16.51;57.16;103069.81;5010389;28;9038;-66
2022/07/08 00:34:33;;;;;;;;;1.00;1.00;;;;;16.49;57.41;103069.16;5008980;28;9764;-65
2022/07/08 00:36:59;;;;;;;;;0.00;0.00;;;;;16.50;57.73;103073.56;5008941;28;8987;-64
2022/07/08 00:39:26;;;;;;;;;0.67;0.00;;;;;16.47;57.98;103071.19;5013573;28;8920;-66
2022/07/08 00:41:52;;;;;;;;;2.25;0.00;;;;;16.43;58.00;103073.44;5013844;28;9026;-66
2022/07/08 00:44:19;;;;;;;;;1.00;1.00;;;;;16.39;57.84;103074.81;5013440;28;8875;-64
2022/07/08 00:46:45;;;;;;;;;1.00;1.00;;;;;16.35;58.03;103068.03;5013545;28;8930;-64
2022/07/08 00:49:12;;;;;;;;;0.50;0.50;;;;;16.33;58.49;103059.22;5012561;28;8917;-64
2022/07/08 00:51:40;;;;;;;;;0.00;0.00;;;;;16.29;58.44;103053.28;5006269;28;8814;-64
2022/07/08 00:54:07;;;;;;;;;1.00;0.00;;;;;16.27;58.79;103057.22;5013161;28;9592;-64
2022/07/08 00:56:34;;;;;;;;;1.00;1.00;;;;;16.27;58.84;103057.22;5013359;28;8921;-65
2022/07/08 00:59:00;;;;;;;;;1.67;1.00;;;;;16.26;59.13;103053.66;5011642;28;9276;-65
2022/07/08 01:01:27;;;;;;;;;0.00;0.00;;;;;16.24;59.06;103063.00;5004450;28;9073;-64
2022/07/08 01:03:54;;;;;;;;;2.67;1.00;;;;;16.23;58.87;103059.44;5004163;28;8973;-64
2022/07/08 01:06:21;;;;;;;;;1.00;1.00;;;;;16.22;59.09;103062.34;5007857;28;8999;-64
2022/07/08 01:08:47;;;;;;;;;1.00;1.00;;;;;16.19;58.99;103060.81;5013280;28;9084;-66
2022/07/08 01:11:14;;;;;;;;;2.33;1.00;;;;;16.20;59.39;103058.94;5013052;28;9092;-65
2022/07/08 01:13:41;;;;;;;;;0.00;0.00;;;;;16.18;59.24;103061.84;5009931;28;9202;-65
2022/07/08 01:16:07;;;;;;;;;2.00;1.67;;;;;16.17;59.21;103062.88;5002214;28;9707;-65
2022/07/08 01:18:34;;;;;;;;;1.00;1.00;;;;;16.17;59.23;103060.16;5012602;28;8916;-65
2022/07/08 01:21:01;;;;;;;;;3.00;2.00;;;;;16.15;59.52;103062.19;5012780;28;9086;-65
2022/07/08 01:23:27;;;;;;;;;1.00;1.00;;;;;16.12;59.53;103067.97;5013063;28;9088;-66
2022/07/08 01:25:55;;;;;;;;;2.00;1.00;;;;;16.09;59.50;103060.19;5000673;28;9005;-66
2022/07/08 01:28:21;;;;;;;;;1.00;1.00;;;;;16.09;59.62;103064.78;5011762;28;9072;-66
2022/07/08 01:30:48;;;;;;;;;2.00;1.00;;;;;16.06;59.80;103066.81;5002014;28;9251;-65
2022/07/08 01:33:14;;;;;;;;;1.00;1.00;;;;;16.05;59.94;103075.16;5012241;28;9074;-65
2022/07/08 01:35:41;;;;;;;;;0.00;0.00;;;;;16.04;59.67;103073.44;5012150;28;9070;-66
2022/07/08 01:38:07;;;;;;;;;2.33;2.33;;;;;16.01;59.63;103062.94;5008320;28;9093;-66
2022/07/08 01:40:34;;;;;;;;;1.00;1.00;;;;;16.00;60.08;103061.22;4994507;28;9055;-66
2022/07/08 01:43:01;;;;;;;;;1.00;1.00;;;;;15.98;60.03;103057.84;4993014;28;8957;-66
2022/07/08 01:45:27;;;;;;;;;1.00;1.00;;;;;15.96;60.12;103059.88;5004867;28;9186;-65
2022/07/08 01:47:54;;;;;;;;;1.33;1.33;;;;;15.94;59.82;103057.34;5011686;28;9070;-66
2022/07/08 01:50:20;;;;;;;;;1.00;1.00;;;;;15.93;60.21;103057.53;5012600;28;9057;-67
2022/07/08 01:52:47;;;;;;;;;0.00;0.00;;;;;15.89;60.43;103051.59;5003057;28;9208;-66
2022/07/08 01:55:13;;;;;;;;;1.33;0.00;;;;;15.87;60.40;103048.22;5005539;28;9007;-66
2022/07/08 01:57:39;;;;;;;;;1.00;1.00;;;;;15.86;60.05;103051.94;5012022;28;9230;-66
2022/07/08 02:00:07;;;;;;;;;2.00;2.00;;;;;15.85;60.27;103058.41;5011978;28;9051;-67
2022/07/08 02:02:42;;;;;;;;;0.00;0.00;;;;;15.82;60.29;103059.59;5012384;28;9142;-66
2022/07/08 02:05:09;;;;;;;;;1.33;1.33;;;;;15.79;60.59;103059.09;5011062;28;8929;-66
2022/07/08 02:07:37;;;;;;;;;2.00;2.00;;;;;15.76;60.68;103065.75;5003806;28;9070;-66
2022/07/08 02:10:04;;;;;;;;;2.00;1.00;;;;;15.75;60.66;103068.63;5011876;28;9276;-66
2022/07/08 02:12:31;;;;;;;;;0.33;0.33;;;;;15.72;60.84;103064.41;5011942;28;9156;-66
2022/07/08 02:15:02;;;;;;;;;1.00;1.00;;;;;15.69;60.60;103055.75;5011685;28;9083;-66
2022/07/08 02:17:35;;;;;;;;;0.67;0.67;;;;;15.66;60.93;103054.22;5010331;28;9089;-66
2022/07/08 02:20:12;;;;;;;;;1.00;1.00;;;;;15.63;61.09;103043.66;5005532;28;9193;-66
2022/07/08 02:22:40;;;;;;;;;0.00;0.00;;;;;15.62;60.87;103043.84;5011433;28;9182;-66
2022/07/08 02:25:07;;;;;;;;;1.00;1.00;;;;;15.58;61.04;103035.22;5011591;28;9036;-65
2022/07/08 02:27:34;;;;;;;;;2.00;2.00;;;;;15.56;61.20;103038.09;5011020;28;9081;-65
2022/07/08 02:30:00;;;;;;;;;1.00;1.00;;;;;15.54;61.38;103042.84;5009142;28;9245;-65
2022/07/08 02:32:27;;;;;;;;;2.33;2.00;;;;;15.53;61.72;103045.75;5004199;28;9134;-65
2022/07/08 02:34:53;;;;;;;;;1.67;1.67;;;;;15.51;61.83;103045.06;5008989;28;9335;-65
2022/07/08 02:37:20;;;;;;;;;1.00;1.00;;;;;15.47;61.76;103046.41;5010968;28;9262;-65
2022/07/08 02:39:47;;;;;;;;;3.00;1.00;;;;;15.42;62.04;103051.53;5011091;28;9334;-65
2022/07/08 02:42:13;;;;;;;;;1.67;1.00;;;;;15.38;62.25;103032.03;5011167;28;8980;-66
2022/07/08 02:44:40;;;;;;;;;1.33;1.33;;;;;15.37;62.34;103029.50;5010355;28;9237;-65
2022/07/08 02:47:08;;;;;;;;;1.33;1.00;;;;;15.34;61.97;103033.38;5005025;28;9160;-65
2022/07/08 02:49:35;;;;;;;;;1.00;1.00;;;;;15.29;62.52;103030.34;4992552;28;9264;-65
2022/07/08 02:52:02;;;;;;;;;1.00;1.00;;;;;15.27;62.58;103025.13;4992353;28;9237;-65
2022/07/08 02:54:28;;;;;;;;;1.00;1.00;;;;;15.28;62.72;103034.09;4989702;28;9253;-65
2022/07/08 02:56:55;;;;;;;;;1.67;1.67;;;;;15.27;62.87;103035.97;4992780;28;9154;-66
2022/07/08 02:59:21;;;;;;;;;0.33;0.33;;;;;15.25;62.83;103029.00;5005860;28;9162;-65
2022/07/08 03:01:47;;;;;;;;;1.00;1.00;;;;;15.24;62.89;103046.31;5011033;28;9361;-64
2022/07/08 03:04:14;;;;;;;;;1.00;1.00;;;;;15.19;62.99;103040.53;5010964;28;9418;-65
2022/07/08 03:06:41;;;;;;;;;1.00;1.00;;;;;15.16;63.03;103035.47;5010489;28;9148;-65
2022/07/08 03:09:07;;;;;;;;;1.67;1.00;;;;;15.13;63.28;103052.91;4991678;28;9365;-65
2022/07/08 03:11:34;;;;;;;;;5.00;2.67;;;;;15.12;63.19;103059.38;4997288;28;9254;-65
2022/07/08 03:14:00;;;;;;;;;1.00;1.00;;;;;15.09;63.31;103046.13;5009342;28;9363;-65
2022/07/08 03:16:32;;;;;;;;;2.67;2.33;;;;;15.07;63.53;103048.19;5010509;28;9137;-66
2022/07/08 03:18:58;;;;;;;;;2.33;2.00;;;;;15.03;63.81;103041.41;5009866;28;9242;-66
2022/07/08 03:21:25;;;;;;;;;1.00;1.00;;;;;15.00;63.73;103047.16;4999128;28;9350;-65
2022/07/08 03:23:51;;;;;;;;;1.00;1.00;;;;;14.99;64.04;103040.91;5002209;28;9254;-65
2022/07/08 03:26:18;;;;;;;;;2.00;2.00;;;;;14.99;64.08;103042.75;5009979;28;9925;-66
2022/07/08 03:28:44;;;;;;;;;2.00;2.00;;;;;14.97;64.15;103042.91;4992671;28;9252;-67
2022/07/08 03:31:11;;;;;;;;;2.00;2.00;;;;;14.95;64.14;103038.66;5002664;28;9417;-66
2022/07/08 03:33:38;;;;;;;;;2.00;2.00;;;;;14.93;64.11;103043.44;5010884;28;9340;-65
2022/07/08 03:36:06;;;;;;;;;1.00;1.00;;;;;14.92;64.44;103045.31;5010301;28;9231;-66
2022/07/08 03:38:34;;;;;;;;;2.00;2.00;;;;;14.90;64.35;103044.59;5010017;28;9408;-66
2022/07/08 03:43:54;;;;;;;;;2.33;2.00;;;;;14.87;64.76;103046.81;5010458;28;9290;-66
2022/07/08 03:46:21;;;;;;;;;1.00;1.00;;;;;14.84;64.82;103046.13;5009196;28;9989;-66
2022/07/08 03:48:48;;;;;;;;;3.00;1.33;;;;;14.84;64.59;103048.00;5007987;28;9434;-66
2022/07/08 03:51:15;;;;;;;;;1.67;1.67;;;;;14.83;64.68;103038.19;5010453;28;9376;-66
2022/07/08 03:53:43;;;;;;;;;1.67;1.00;;;;;14.82;64.89;103048.16;5003721;28;9364;-66
2022/07/08 03:56:10;;;;;;;;;2.00;2.00;;;;;14.79;64.80;103036.84;5001745;28;9388;-66
2022/07/08 03:58:37;;;;;;;;;1.33;1.00;;;;;14.81;64.96;103045.63;5007325;28;9417;-65
2022/07/08 04:01:05;;;;;;;;;3.00;2.00;;;;;14.82;65.00;103044.59;5009864;28;9354;-65
2022/07/08 04:03:31;;;;;;;;;2.00;2.00;;;;;14.82;65.30;103041.88;5010171;28;9266;-65
2022/07/08 04:05:58;;;;;;;;;3.00;3.00;;;;;14.84;64.90;103051.56;5010020;28;9400;-66
2022/07/08 04:08:24;;;;;;;;;2.33;2.00;;;;;14.87;64.95;103049.50;5009552;28;9424;-66
2022/07/08 04:10:51;;;;;;;;;3.00;2.00;;;;;14.88;65.17;103062.09;5004059;28;10055;-66
2022/07/08 04:13:18;;;;;;;;;1.00;1.00;;;;;14.89;65.35;103064.63;4994714;28;9381;-66
2022/07/08 04:15:50;;;;;;;;;1.00;1.00;;;;;14.90;65.35;103063.59;5012105;28;9968;-66
2022/07/08 04:18:17;;;;;;;;;3.00;1.33;;;;;14.92;65.34;103056.16;5013275;28;10148;-65
2022/07/08 04:20:44;;;;;;;;;1.00;1.00;;;;;14.92;65.35;103060.72;5011925;28;9414;-66
2022/07/08 04:23:10;;;;;;;;;0.00;0.00;;;;;14.90;65.47;103058.16;5005125;28;9240;-66
2022/07/08 04:25:37;;;;;;;;;1.00;1.00;;;;;14.88;65.54;103062.94;5013965;28;9229;-66
2022/07/08 04:28:03;;;;;;;;;1.00;1.00;;;;;14.87;65.61;103068.50;5013555;28;9385;-67
2022/07/08 04:30:30;;;;;;;;;3.00;2.00;;;;;14.84;65.57;103070.53;5012334;28;9303;-67
2022/07/08 04:32:56;;;;;;;;;1.00;1.00;;;;;14.84;65.93;103065.13;4996212;28;9244;-67
2022/07/08 04:35:23;;;;;;;;;1.00;1.00;;;;;14.84;65.89;103065.13;5006126;28;9253;-67
2022/07/08 04:37:50;;;;;;;;;2.00;1.00;;;;;14.87;65.91;103073.91;5011015;28;9182;-67
2022/07/08 04:40:16;;;;;;;;;1.00;1.00;;;;;14.90;66.24;103070.88;5012995;28;9246;-67
2022/07/08 04:42:43;;;;;;;;;1.67;1.67;;;;;14.91;66.32;103083.41;5012567;28;9078;-67
2022/07/08 04:45:10;;;;;;;;;2.00;2.00;;;;;14.91;66.32;103087.00;5012458;28;9133;-67
2022/07/08 04:47:36;;;;;;;;;2.00;2.00;;;;;14.93;66.29;103081.41;4994923;28;9284;-67
2022/07/08 04:50:03;;;;;;;;;1.00;1.00;;;;;14.95;66.37;103082.94;5008026;28;9933;-67
2022/07/08 04:52:29;;;;;;;;;2.33;1.33;;;;;14.99;66.41;103086.13;5008552;28;9201;-66
2022/07/08 04:54:56;;;;;;;;;2.33;1.67;;;;;15.03;66.54;103088.38;5012642;28;9272;-66
2022/07/08 04:57:22;;;;;;;;;1.67;1.67;;;;;15.08;66.37;103091.41;5013542;28;9201;-64
2022/07/08 04:59:49;;;;;;;;;1.67;1.67;;;;;15.14;66.57;103091.75;5012624;28;9189;-65
2022/07/08 05:02:15;;;;;;;;;1.33;1.33;;;;;15.16;66.43;103087.84;5013539;28;9302;-65
2022/07/08 05:04:42;;;;;;;;;2.67;1.00;;;;;15.22;66.22;103089.03;5009237;28;9243;-65
2022/07/08 05:07:08;;;;;;;;;2.00;2.00;;;;;15.26;66.14;103093.94;5006388;28;8999;-65
2022/07/08 05:09:35;;;;;;;;;2.33;1.67;;;;;15.29;66.19;103096.31;5012066;28;9268;-65
2022/07/08 05:12:02;;;;;;;;;2.33;1.00;;;;;15.31;66.19;103097.00;5013145;28;9007;-66
2022/07/08 05:14:28;;;;;;;;;1.33;1.00;;;;;15.36;65.88;103104.63;5011604;28;9288;-64
2022/07/08 05:16:54;;;;;;;;;1.00;1.00;;;;;15.39;65.66;103101.56;5004778;28;9081;-64
2022/07/08 05:19:21;;;;;;;;;2.00;1.67;;;;;15.41;65.68;103107.69;5013141;28;9060;-65
2022/07/08 05:21:47;;;;;;;;;2.67;2.67;;;;;15.43;65.52;103110.22;5012241;28;9304;-65
2022/07/08 05:24:14;;;;;;;;;2.00;2.00;;;;;15.46;65.76;103104.44;5009762;28;9366;-66
2022/07/08 05:26:40;;;;;;;;;2.67;2.00;;;;;15.50;65.81;103111.22;5011364;28;9784;-66
2022/07/08 05:29:07;;;;;;;;;1.00;1.00;;;;;15.54;65.89;103116.13;5012451;28;9184;-66
2022/07/08 05:31:33;;;;;;;;;1.00;1.00;;;;;15.57;65.88;103104.09;4988385;28;9175;-65
2022/07/08 05:34:00;;;;;;;;;2.00;2.00;;;;;15.58;65.83;103103.06;4981521;28;9171;-65
2022/07/08 05:36:27;;;;;;;;;0.00;0.00;;;;;15.59;65.64;103112.91;5004032;28;9068;-65
2022/07/08 05:38:53;;;;;;;;;4.00;1.00;;;;;15.62;65.74;103115.28;5011742;28;9098;-65
2022/07/08 05:41:20;;;;;;;;;1.00;1.00;;;;;15.65;66.00;103125.00;5012223;28;9049;-65
2022/07/08 05:43:46;;;;;;;;;2.00;2.00;;;;;15.69;65.96;103116.34;5012177;28;9202;-65
2022/07/08 05:46:12;;;;;;;;;3.33;3.00;;;;;15.71;65.78;103117.00;5012441;28;9057;-65
2022/07/08 05:48:39;;;;;;;;;1.67;1.00;;;;;15.72;66.11;103118.72;4993237;28;9166;-65
2022/07/08 05:51:06;;;;;;;;;1.00;1.00;;;;;15.76;65.71;103124.66;5000249;28;8919;-65
2022/07/08 05:53:32;;;;;;;;;1.00;1.00;;;;;15.78;66.03;103128.88;5012759;28;9813;-65
2022/07/08 05:55:59;;;;;;;;;1.00;1.00;;;;;15.81;66.15;103130.41;5010968;28;9612;-65
2022/07/08 05:58:25;;;;;;;;;1.00;1.00;;;;;15.86;66.04;103136.16;5011927;28;8970;-67
2022/07/08 06:00:52;;;;;;;;;2.00;2.00;;;;;15.91;65.79;103128.31;5012104;28;8973;-66
2022/07/08 06:03:18;;;;;;;;;1.67;1.00;;;;;15.97;65.88;103124.06;5011575;28;8868;-66
2022/07/08 06:05:45;;;;;;;;;3.00;3.00;;;;;15.98;65.66;103115.75;5008075;28;9043;-66
2022/07/08 06:08:11;;;;;;;;;2.00;1.00;;;;;16.03;65.68;103116.06;5011090;28;9193;-66
2022/07/08 06:10:38;;;;;;;;;1.00;1.00;;;;;16.14;65.60;103122.16;5010879;28;8994;-66
2022/07/08 06:13:04;;;;;;;;;1.00;1.00;;;;;16.21;65.82;103129.44;5012046;28;8822;-66
2022/07/08 06:15:31;;;;;;;;;1.00;1.00;;;;;16.28;65.45;103135.00;5007240;28;8932;-66
2022/07/08 06:17:57;;;;;;;;;1.00;1.00;;;;;16.35;65.22;103135.97;5007199;28;8949;-65
2022/07/08 06:20:24;;;;;;;;;1.25;1.00;;;;;16.37;65.61;103133.09;5011198;28;9043;-65
2022/07/08 06:22:50;;;;;;;;;1.00;1.00;;;;;16.42;65.12;103136.13;5009770;28;8854;-65
2022/07/08 06:25:17;;;;;;;;;1.25;1.25;;;;;16.49;65.32;103139.84;5010189;28;9865;-67
2022/07/08 06:27:44;;;;;;;;;4.00;3.00;;;;;16.51;65.57;103140.50;5010606;28;8830;-65
2022/07/08 06:30:13;;;;;;;;;1.67;1.00;;;;;16.56;65.24;103144.38;5005980;28;9001;-65
2022/07/08 06:32:39;;;;;;;;;2.00;1.00;;;;;16.62;65.35;103144.72;5008063;28;8922;-65
2022/07/08 06:35:06;;;;;;;;;1.00;1.00;;;;;16.66;65.39;103140.59;5010862;28;8923;-65
2022/07/08 06:37:33;;;;;;;;;2.00;1.67;;;;;16.72;65.14;103142.59;5010477;28;8834;-65
2022/07/08 06:39:59;;;;;;;;;2.00;1.00;;;;;16.79;65.28;103141.75;5004702;28;8951;-65
2022/07/08 06:42:26;;;;;;;;;1.25;1.00;;;;;16.86;64.86;103128.28;5005541;28;8952;-65
2022/07/08 06:44:54;;;;;;;;;1.00;1.00;;;;;16.93;65.02;103139.25;4992843;28;8856;-66
2022/07/08 06:47:22;;;;;;;;;1.00;1.00;;;;;16.95;64.81;103142.66;5009196;28;8830;-66
2022/07/08 06:49:49;;;;;;;;;2.00;2.00;;;;;16.99;64.55;103133.13;5010566;28;8833;-66
2022/07/08 06:52:16;;;;;;;;;2.00;2.00;;;;;17.00;64.56;103141.09;5011479;28;8845;-66
2022/07/08 06:54:42;;;;;;;;;0.50;0.50;;;;;17.05;64.71;103140.53;5005900;28;8861;-65
2022/07/08 06:57:09;;;;;;;;;2.00;2.00;;;;;17.03;64.83;103142.59;5005025;28;9563;-65
2022/07/08 06:59:37;;;;;;;;;2.00;1.00;;;;;17.00;65.07;103143.81;5006831;28;8909;-67
2022/07/08 07:02:23;;;;;;;;;1.00;1.00;;;;;17.05;64.71;103143.25;5010051;28;8911;-67
2022/07/08 07:04:50;;;;;;;;;1.00;1.00;;;;;17.11;64.96;103138.97;4992445;28;8814;-67
2022/07/08 07:07:16;;;;;;;;;1.00;1.00;;;;;17.18;64.51;103142.69;5010255;28;8858;-66
2022/07/08 07:09:46;;;;;;;;;2.25;2.25;;;;;17.20;64.62;103138.72;5010297;28;8856;-66
2022/07/08 07:12:13;;;;;;;;;3.50;2.00;;;;;17.23;64.61;103138.38;5003055;28;8868;-66
2022/07/08 07:14:39;;;;;;;;;1.00;0.25;;;;;17.31;64.22;103137.47;5002865;28;9003;-67
2022/07/08 07:17:06;;;;;;;;;2.00;2.00;;;;;17.39;64.62;103142.84;5000905;28;9615;-67
2022/07/08 07:19:32;;;;;;;;;1.25;1.00;;;;;17.46;64.32;103135.63;5006417;28;8863;-65
2022/07/08 07:21:59;;;;;;;;;1.75;1.00;;;;;17.52;63.75;103136.75;4992096;28;9928;-65
2022/07/08 07:24:25;;;;;;;;;2.00;2.00;;;;;17.56;63.41;103138.09;4996102;28;8902;-69
2022/07/08 07:26:52;;;;;;;;;1.25;1.00;;;;;17.63;63.24;103136.31;5008858;28;8889;-66
2022/07/08 07:29:18;;;;;;;;;2.00;2.00;;;;;17.68;62.86;103143.94;5002935;28;8857;-65
2022/07/08 07:31:44;;;;;;;;;1.25;1.25;;;;;17.70;62.62;103134.56;5003894;28;8830;-66
2022/07/08 07:34:11;;;;;;;;;1.00;1.00;;;;;17.69;62.30;103129.28;5003338;28;8863;-67
2022/07/08 07:36:38;;;;;;;;;0.25;0.25;;;;;17.71;62.21;103129.94;5006552;28;8866;-66
2022/07/08 07:39:04;;;;;;;;;1.00;1.00;;;;;17.72;61.96;103124.31;5004183;28;8955;-69
2022/07/08 07:41:30;;;;;;;;;3.00;2.00;;;;;17.77;61.69;103127.34;5008028;28;8858;-65
2022/07/08 07:43:57;;;;;;;;;4.00;1.00;;;;;17.78;61.82;103129.06;5001468;28;8828;-66
2022/07/08 07:46:24;;;;;;;;;1.50;1.50;;;;;17.83;61.71;103135.81;4997110;28;8890;-65
2022/07/08 07:48:51;;;;;;;;;1.00;1.00;;;;;17.89;61.82;103133.19;5010748;28;8830;-66
2022/07/08 07:51:17;;;;;;;;;1.00;1.00;;;;;17.97;61.45;103133.09;5010571;28;8981;-66
2022/07/08 07:53:44;;;;;;;;;0.00;0.00;;;;;18.05;60.94;103132.16;4997881;28;8864;-66
2022/07/08 07:56:10;;;;;;;;;1.00;0.00;;;;;18.12;61.02;103133.09;5009849;28;8868;-66
2022/07/08 07:58:42;;;;;;;;;1.00;1.00;;;;;18.16;60.79;103137.13;5010635;28;8841;-67
2022/07/08 08:01:17;;;;;;;;;1.00;0.75;;;;;18.22;60.75;103130.06;5010353;28;8840;-67
2022/07/08 08:03:58;;;;;;;;;2.00;2.00;;;;;18.28;60.51;103134.78;4989997;28;8861;-66
2022/07/08 08:06:24;;;;;;;;;0.75;0.75;;;;;18.28;60.94;103129.31;5009827;28;8877;-65
2022/07/08 08:08:51;;;;;;;;;1.00;1.00;;;;;18.29;61.03;103136.47;5000351;28;8830;-66
2022/07/08 08:11:17;;;;;;;;;1.00;1.00;;;;;18.36;61.00;103142.00;5009338;28;8844;-66
2022/07/08 08:13:44;;;;;;;;;0.50;0.50;;;;;18.40;60.84;103135.97;5010636;28;8829;-65
2022/07/08 08:16:10;;;;;;;;;1.00;1.00;;;;;18.44;60.24;103141.91;5010111;28;8850;-66
2022/07/08 08:18:38;;;;;;;;;2.00;1.50;;;;;18.49;59.93;103142.16;5010430;28;8845;-66
2022/07/08 08:21:05;;;;;;;;;0.50;0.50;;;;;18.54;59.69;103147.91;5009659;28;8822;-67
2022/07/08 08:23:32;;;;;;;;;3.00;0.50;;;;;18.57;59.36;103139.34;4994286;28;8967;-66
2022/07/08 08:25:58;;;;;;;;;1.00;1.00;;;;;18.59;59.33;103148.16;5009507;28;8842;-65
2022/07/08 08:28:25;;;;;;;;;1.25;1.00;;;;;18.58;59.70;103143.75;5010530;28;8852;-65
2022/07/08 08:30:52;;;;;;;;;1.00;1.00;;;;;18.64;59.75;103144.88;5008990;28;8844;-66
2022/07/08 08:33:18;;;;;;;;;0.00;0.00;;;;;18.68;59.66;103146.19;5008944;28;8895;-65
2022/07/08 08:35:45;;;;;;;;;1.75;1.75;;;;;18.66;59.63;103148.25;4984834;28;8840;-66
2022/07/08 08:38:11;;;;;;;;;1.00;1.00;;;;;18.68;59.25;103144.31;4991092;28;8887;-65
2022/07/08 08:40:38;;;;;;;;;0.25;0.25;;;;;18.75;59.08;103150.69;5010750;28;8964;-66
2022/07/08 08:43:05;;;;;;;;;0.75;0.75;;;;;18.74;58.73;103157.19;5007132;28;9634;-66
2022/07/08 08:45:33;;;;;;;;;2.00;2.00;;;;;18.86;58.06;103153.97;5008370;28;8842;-66
2022/07/08 08:48:06;;;;;;;;;0.25;0.25;;;;;18.90;57.98;103138.91;4992045;28;8865;-67
2022/07/08 08:50:53;;;;;;;;;0.00;0.00;;;;;18.90;57.96;103136.16;5009692;28;8830;-67
2022/07/08 08:53:30;;;;;;;;;1.00;1.00;;;;;18.98;57.47;103142.34;5005591;28;8871;-66
2022/07/08 08:56:01;;;;;;;;;2.00;0.00;;;;;19.03;56.51;103141.75;5006396;28;8887;-67
2022/07/08 08:58:28;;;;;;;;;2.75;1.00;;;;;19.12;57.01;103132.41;5011250;28;9643;-65
2022/07/08 09:00:55;;;;;;;;;0.50;0.50;;;;;19.17;57.00;103146.31;5001931;28;8856;-66
2022/07/08 09:03:22;;;;;;;;;0.25;0.25;;;;;19.24;57.13;103141.78;5013528;28;8834;-65
2022/07/08 09:05:49;;;;;;;;;2.00;1.50;;;;;19.27;56.98;103140.50;5005043;28;8837;-65
2022/07/08 09:08:15;;;;;;;;;0.50;0.50;;;;;19.31;56.81;103140.97;4998472;28;8821;-67
2022/07/08 09:10:42;;;;;;;;;0.50;0.50;;;;;19.35;55.82;103145.00;5016790;28;8842;-65
2022/07/08 09:13:10;;;;;;;;;0.75;0.75;;;;;19.40;54.69;103142.50;5013865;28;8830;-65
2022/07/08 09:15:40;;;;;;;;;1.25;0.25;;;;;19.41;54.41;103149.69;5004797;28;8840;-67
2022/07/08 09:18:09;;;;;;;;;0.75;0.75;;;;;19.47;54.86;103132.50;4995065;28;8866;-66
2022/07/08 09:20:45;;;;;;;;;0.00;0.00;;;;;19.55;55.28;103129.63;5007050;28;8826;-65
2022/07/08 09:23:17;;;;;;;;;0.00;0.00;;;;;19.63;55.04;103131.41;5012534;28;8880;-65
2022/07/08 09:25:52;;;;;;;;;1.00;1.00;;;;;19.69;54.16;103138.81;5012659;28;8838;-65
2022/07/08 09:28:35;;;;;;;;;3.00;1.00;;;;;19.82;53.38;103138.06;5011428;28;8810;-65
2022/07/08 09:31:04;;;;;;;;;1.00;1.00;;;;;19.92;53.02;103130.31;5012694;28;8861;-66
2022/07/08 09:33:31;;;;;;;;;1.50;0.25;;;;;20.02;52.89;103129.97;5012106;28;8857;-66
2022/07/08 09:36:01;;;;;;;;;2.00;1.00;;;;;20.11;52.35;103136.97;5002488;28;8872;-66
2022/07/08 09:38:30;;;;;;;;;0.75;0.75;;;;;20.16;51.99;103129.00;5009861;28;8929;-66
2022/07/08 09:40:57;;;;;;;;;1.00;1.00;;;;;20.21;51.01;103135.53;5008148;28;8907;-66
2022/07/08 09:43:25;;;;;;;;;0.00;0.00;;;;;20.24;51.26;103137.88;5004975;28;8841;-66
2022/07/08 09:45:53;;;;;;;;;0.00;0.00;;;;;20.31;50.18;103131.59;5009609;28;8876;-66
2022/07/08 09:48:20;;;;;;;;;0.50;0.50;;;;;20.31;49.78;103129.69;5001198;28;8830;-66
2022/07/08 09:50:48;;;;;;;;;1.00;1.00;;;;;20.30;50.18;103127.19;5001826;28;8959;-66
2022/07/08 09:53:31;;;;;;;;;1.00;1.00;;;;;20.36;50.24;103135.41;4998169;28;8828;-66
2022/07/08 09:56:01;;;;;;;;;2.50;1.00;;;;;20.42;50.01;103136.50;5009054;28;8868;-67
2022/07/08 09:58:30;;;;;;;;;0.25;0.25;;;;;20.48;49.63;103144.75;5005787;28;8943;-66
2022/07/08 10:00:57;;;;;;;;;1.50;0.00;;;;;20.56;48.97;103138.25;5010061;28;8905;-66
2022/07/08 10:03:24;;;;;;;;;0.00;0.00;;;;;20.60;48.79;103139.53;5012322;28;8842;-67
2022/07/08 10:05:52;;;;;;;;;0.75;0.75;;;;;20.64;48.62;103138.06;5011016;28;8830;-65
2022/07/08 10:08:18;;;;;;;;;0.00;0.00;;;;;20.66;48.60;103135.97;4994893;28;8972;-65
2022/07/08 10:10:48;;;;;;;;;0.50;0.50;;;;;20.66;48.05;103135.97;5010318;28;8861;-65
2022/07/08 10:13:15;;;;;;;;;0.75;0.75;;;;;20.74;47.79;103138.53;5003156;28;8860;-65
2022/07/08 10:15:43;;;;;;;;;0.00;0.00;;;;;20.80;47.34;103157.91;5005830;28;8857;-66
2022/07/08 10:18:20;;;;;;;;;0.25;0.25;;;;;20.81;46.94;103148.63;5006431;28;8830;-65
2022/07/08 10:20:50;;;;;;;;;2.00;2.00;;;;;20.80;46.37;103149.69;5005242;28;8865;-64
2022/07/08 10:23:24;;;;;;;;;1.00;1.00;;;;;20.87;46.42;103150.56;5011550;28;8829;-65
2022/07/08 10:25:54;;;;;;;;;0.25;0.25;;;;;20.95;47.19;103151.22;5007979;28;8853;-66
2022/07/08 10:28:33;;;;;;;;;0.75;0.50;;;;;21.08;47.50;103146.81;5001550;28;8869;-67
2022/07/08 10:31:00;;;;;;;;;0.50;0.50;;;;;21.16;47.31;103149.34;5002456;28;8972;-67
2022/07/08 10:33:29;;;;;;;;;1.25;1.25;;;;;21.16;46.59;103136.50;5001358;28;8859;-68
2022/07/08 10:36:06;;;;;;;;;1.00;1.00;;;;;21.18;47.69;103147.22;5000923;28;8847;-68
2022/07/08 10:38:34;;;;;;;;;0.50;0.50;;;;;21.25;47.92;103145.34;4996928;28;8928;-65
2022/07/08 10:41:04;;;;;;;;;1.00;1.00;;;;;21.34;47.70;103144.13;4996948;28;8914;-66
2022/07/08 10:43:31;;;;;;;;;1.00;1.00;;;;;21.22;46.97;103146.59;5002077;28;8870;-66
2022/07/08 10:46:05;;;;;;;;;2.00;1.25;;;;;21.14;47.18;103148.69;4986735;28;8971;-66
2022/07/08 10:48:40;;;;;;;;;2.50;1.00;;;;;21.20;47.33;103140.50;5007256;28;8838;-67
2022/07/08 10:51:37;;;;;;;;;1.00;1.00;;;;;21.30;47.26;103141.97;5007365;28;8872;-67
2022/07/08 10:54:07;;;;;;;;;1.00;1.00;;;;;21.32;47.67;103131.66;5003262;28;8856;-68
2022/07/08 10:56:54;;;;;;;;;1.50;1.50;;;;;21.30;47.29;103137.34;4992575;28;8947;-67
2022/07/08 10:59:29;;;;;;;;;2.50;2.00;;;;;21.31;46.99;103139.03;5005107;28;8939;-67
2022/07/08 11:02:05;;;;;;;;;1.00;1.00;;;;;21.43;47.00;103145.63;4994550;28;9554;-67
2022/07/08 11:04:35;;;;;;;;;1.50;1.50;;;;;21.48;47.15;103143.06;4998951;28;8916;-67
2022/07/08 11:07:17;;;;;;;;;1.00;1.00;;;;;21.49;46.66;103130.22;5001154;28;8935;-67
2022/07/08 11:09:45;;;;;;;;;1.25;1.25;;;;;21.60;47.12;103135.06;4999831;28;8822;-67
2022/07/08 11:12:13;;;;;;;;;1.00;1.00;;;;;21.66;47.28;103136.94;5010786;28;8861;-67
2022/07/08 11:14:48;;;;;;;;;3.00;1.00;;;;;21.63;47.80;103139.25;5010054;28;8933;-67
2022/07/08 11:17:20;;;;;;;;;5.00;2.75;;;;;21.72;47.94;103140.75;5010131;28;8889;-66
2022/07/08 11:19:48;;;;;;;;;2.00;2.00;;;;;21.70;48.16;103134.63;5006828;28;8863;-67
2022/07/08 11:22:15;;;;;;;;;3.00;1.50;;;;;21.65;48.30;103138.00;4999071;28;8851;-67
2022/07/08 11:24:53;;;;;;;;;2.25;2.00;;;;;21.65;48.31;103131.69;4997840;28;8822;-66
2022/07/08 11:27:25;;;;;;;;;4.50;2.75;;;;;21.70;48.77;103132.72;5009896;28;8810;-67
2022/07/08 11:29:53;;;;;;;;;2.00;2.00;;;;;21.69;48.15;103138.41;5010021;28;8848;-67
2022/07/08 11:32:22;;;;;;;;;1.75;1.75;;;;;21.73;48.33;103126.81;5001518;28;8830;-67
2022/07/08 11:34:49;;;;;;;;;2.00;2.00;;;;;21.86;48.87;103136.06;4999310;28;8852;-67
2022/07/08 11:37:16;;;;;;;;;0.00;0.00;;;;;22.00;49.17;103136.88;5003475;28;8853;-66
2022/07/08 11:39:44;;;;;;;;;3.00;3.00;;;;;22.03;48.43;103142.78;5009786;28;8964;-67